sensor_id;sensor_type;location;lat;lon;timestamp;P1;durP1;ratioP1;P2;durP2;ratioP2
68353;SDS011;55274;43.060;25.618;2022-09-16T00:01:21;25.13;;;5.28;;
68353;SDS011;55274;43.060;25.618;2022-09-16T00:03:47;49.95;;;7.32;;
68353;SDS011;55274;43.060;25.618;2022-09-16T00:06:21;18.63;;;4.45;;
68353;SDS011;55274;43.060;25.618;2022-09-16T00:08:48;53.65;;;6.80;;
68353;SDS011;55274;43.060;25.618;2022-09-16T00:11:15;27.52;;;5.70;;
68353;SDS011;55274;43.060;25.618;2022-09-16T00:13:42;12.57;;;3.65;;
68353;SDS011;55274;43.060;25.618;2022-09-16T00:16:10;23.73;;;4.50;;
68353;SDS011;55274;43.060;25.618;2022-09-16T00:18:40;19.10;;;4.55;;
68353;SDS011;55274;43.060;25.618;2022-09-16T00:21:06;17.02;;;4.65;;
68353;SDS011;55274;43.060;25.618;2022-09-16T00:23:33;15.32;;;4.78;;
68353;SDS011;55274;43.060;25.618;2022-09-16T00:26:00;25.75;;;5.28;;
68353;SDS011;55274;43.060;25.618;2022-09-16T00:28:26;27.90;;;5.43;;
68353;SDS011;55274;43.060;25.618;2022-09-16T00:30:52;14.43;;;3.92;;
68353;SDS011;55274;43.060;25.618;2022-09-16T00:33:19;15.90;;;4.28;;
68353;SDS011;55274;43.060;25.618;2022-09-16T00:35:45;14.60;;;4.30;;
68353;SDS011;55274;43.060;25.618;2022-09-16T00:38:12;29.00;;;4.22;;
68353;SDS011;55274;43.060;25.618;2022-09-16T00:40:47;17.83;;;4.25;;
68353;SDS011;55274;43.060;25.618;2022-09-16T00:43:15;15.63;;;4.15;;
68353;SDS011;55274;43.060;25.618;2022-09-16T00:45:43;12.60;;;3.60;;
68353;SDS011;55274;43.060;25.618;2022-09-16T00:48:15;15.82;;;4.63;;
68353;SDS011;55274;43.060;25.618;2022-09-16T00:50:53;11.13;;;3.63;;
68353;SDS011;55274;43.060;25.618;2022-09-16T00:53:37;12.45;;;3.78;;
68353;SDS011;55274;43.060;25.618;2022-09-16T00:56:06;7.70;;;3.42;;
68353;SDS011;55274;43.060;25.618;2022-09-16T00:58:43;11.48;;;3.33;;
68353;SDS011;55274;43.060;25.618;2022-09-16T01:01:12;13.20;;;3.85;;
68353;SDS011;55274;43.060;25.618;2022-09-16T01:03:45;7.60;;;3.50;;
68353;SDS011;55274;43.060;25.618;2022-09-16T01:06:14;11.68;;;3.75;;
68353;SDS011;55274;43.060;25.618;2022-09-16T01:08:42;8.60;;;3.33;;
68353;SDS011;55274;43.060;25.618;2022-09-16T01:11:09;14.32;;;4.05;;
68353;SDS011;55274;43.060;25.618;2022-09-16T01:13:36;10.35;;;4.05;;
68353;SDS011;55274;43.060;25.618;2022-09-16T01:18:57;9.40;;;3.60;;
68353;SDS011;55274;43.060;25.618;2022-09-16T01:21:42;10.32;;;3.78;;
68353;SDS011;55274;43.060;25.618;2022-09-16T01:40:51;8.77;;;3.08;;
68353;SDS011;55274;43.060;25.618;2022-09-16T01:43:47;10.40;;;2.95;;
68353;SDS011;55274;43.060;25.618;2022-09-16T01:46:23;16.92;;;4.43;;
68353;SDS011;55274;43.060;25.618;2022-09-16T01:49:15;12.88;;;4.53;;
68353;SDS011;55274;43.060;25.618;2022-09-16T01:55:02;11.75;;;4.38;;
68353;SDS011;55274;43.060;25.618;2022-09-16T02:00:17;12.00;;;3.60;;
68353;SDS011;55274;43.060;25.618;2022-09-16T02:06:13;8.15;;;2.70;;
68353;SDS011;55274;43.060;25.618;2022-09-16T02:08:22;11.85;;;2.83;;
68353;SDS011;55274;43.060;25.618;2022-09-16T02:10:58;7.25;;;3.33;;
68353;SDS011;55274;43.060;25.618;2022-09-16T02:13:32;10.07;;;3.13;;
68353;SDS011;55274;43.060;25.618;2022-09-16T02:16:11;7.53;;;3.33;;
68353;SDS011;55274;43.060;25.618;2022-09-16T02:18:40;10.02;;;3.83;;
68353;SDS011;55274;43.060;25.618;2022-09-16T02:21:08;7.72;;;3.40;;
68353;SDS011;55274;43.060;25.618;2022-09-16T02:23:44;11.07;;;4.00;;
68353;SDS011;55274;43.060;25.618;2022-09-16T02:26:15;15.80;;;4.13;;
68353;SDS011;55274;43.060;25.618;2022-09-16T02:28:45;8.13;;;3.58;;
68353;SDS011;55274;43.060;25.618;2022-09-16T02:31:13;20.30;;;3.95;;
68353;SDS011;55274;43.060;25.618;2022-09-16T02:33:45;12.57;;;3.80;;
68353;SDS011;55274;43.060;25.618;2022-09-16T02:36:21;15.98;;;4.20;;
68353;SDS011;55274;43.060;25.618;2022-09-16T02:38:50;11.93;;;3.30;;
68353;SDS011;55274;43.060;25.618;2022-09-16T02:41:20;14.27;;;4.20;;
68353;SDS011;55274;43.060;25.618;2022-09-16T02:43:47;19.20;;;4.22;;
68353;SDS011;55274;43.060;25.618;2022-09-16T02:51:30;16.08;;;3.67;;
68353;SDS011;55274;43.060;25.618;2022-09-16T02:54:01;11.18;;;4.45;;
68353;SDS011;55274;43.060;25.618;2022-09-16T02:56:35;10.98;;;3.70;;
68353;SDS011;55274;43.060;25.618;2022-09-16T02:59:03;41.90;;;5.22;;
68353;SDS011;55274;43.060;25.618;2022-09-16T03:01:31;15.23;;;4.13;;
68353;SDS011;55274;43.060;25.618;2022-09-16T03:04:01;19.30;;;4.80;;
68353;SDS011;55274;43.060;25.618;2022-09-16T03:06:28;16.08;;;4.70;;
68353;SDS011;55274;43.060;25.618;2022-09-16T03:08:57;18.25;;;4.20;;
68353;SDS011;55274;43.060;25.618;2022-09-16T03:31:29;11.75;;;4.40;;
68353;SDS011;55274;43.060;25.618;2022-09-16T03:34:05;18.08;;;4.57;;
68353;SDS011;55274;43.060;25.618;2022-09-16T03:36:35;10.07;;;3.97;;
68353;SDS011;55274;43.060;25.618;2022-09-16T03:39:05;13.85;;;4.30;;
68353;SDS011;55274;43.060;25.618;2022-09-16T03:41:32;9.40;;;3.97;;
68353;SDS011;55274;43.060;25.618;2022-09-16T03:43:59;11.32;;;4.00;;
68353;SDS011;55274;43.060;25.618;2022-09-16T03:46:25;12.90;;;6.25;;
68353;SDS011;55274;43.060;25.618;2022-09-16T03:48:53;36.58;;;7.03;;
68353;SDS011;55274;43.060;25.618;2022-09-16T03:51:20;20.10;;;5.10;;
68353;SDS011;55274;43.060;25.618;2022-09-16T03:53:46;68.10;;;7.28;;
68353;SDS011;55274;43.060;25.618;2022-09-16T03:56:12;20.75;;;4.60;;
68353;SDS011;55274;43.060;25.618;2022-09-16T03:58:37;20.55;;;4.40;;
68353;SDS011;55274;43.060;25.618;2022-09-16T04:01:03;20.80;;;4.78;;
68353;SDS011;55274;43.060;25.618;2022-09-16T04:03:29;17.80;;;4.70;;
68353;SDS011;55274;43.060;25.618;2022-09-16T04:05:56;21.67;;;5.72;;
68353;SDS011;55274;43.060;25.618;2022-09-16T04:08:22;12.80;;;4.53;;
68353;SDS011;55274;43.060;25.618;2022-09-16T04:10:52;10.45;;;4.13;;
68353;SDS011;55274;43.060;25.618;2022-09-16T04:13:22;15.07;;;4.80;;
68353;SDS011;55274;43.060;25.618;2022-09-16T04:15:48;18.90;;;4.80;;
68353;SDS011;55274;43.060;25.618;2022-09-16T04:18:15;80.95;;;9.07;;
68353;SDS011;55274;43.060;25.618;2022-09-16T04:20:41;19.77;;;4.90;;
68353;SDS011;55274;43.060;25.618;2022-09-16T04:23:07;19.75;;;5.30;;
68353;SDS011;55274;43.060;25.618;2022-09-16T04:25:33;13.40;;;4.05;;
68353;SDS011;55274;43.060;25.618;2022-09-16T04:27:59;12.55;;;4.45;;
68353;SDS011;55274;43.060;25.618;2022-09-16T04:30:25;13.98;;;4.75;;
68353;SDS011;55274;43.060;25.618;2022-09-16T04:32:54;19.55;;;5.18;;
68353;SDS011;55274;43.060;25.618;2022-09-16T04:37:49;24.00;;;6.10;;
68353;SDS011;55274;43.060;25.618;2022-09-16T04:40:15;34.63;;;8.05;;
68353;SDS011;55274;43.060;25.618;2022-09-16T04:42:47;18.13;;;4.80;;
68353;SDS011;55274;43.060;25.618;2022-09-16T04:45:14;28.63;;;5.32;;
68353;SDS011;55274;43.060;25.618;2022-09-16T04:47:40;64.28;;;8.18;;
68353;SDS011;55274;43.060;25.618;2022-09-16T04:50:07;36.85;;;5.40;;
68353;SDS011;55274;43.060;25.618;2022-09-16T04:52:33;39.22;;;5.72;;
68353;SDS011;55274;43.060;25.618;2022-09-16T04:54:59;51.08;;;7.38;;
68353;SDS011;55274;43.060;25.618;2022-09-16T04:57:25;67.07;;;8.20;;
68353;SDS011;55274;43.060;25.618;2022-09-16T04:59:55;35.63;;;8.52;;
68353;SDS011;55274;43.060;25.618;2022-09-16T05:02:21;53.58;;;8.40;;
68353;SDS011;55274;43.060;25.618;2022-09-16T05:04:47;42.28;;;6.45;;
68353;SDS011;55274;43.060;25.618;2022-09-16T05:07:13;33.00;;;7.15;;
68353;SDS011;55274;43.060;25.618;2022-09-16T05:09:38;39.40;;;6.80;;
68353;SDS011;55274;43.060;25.618;2022-09-16T05:12:05;30.05;;;6.35;;
68353;SDS011;55274;43.060;25.618;2022-09-16T05:14:31;25.27;;;7.15;;
68353;SDS011;55274;43.060;25.618;2022-09-16T05:16:57;36.95;;;9.30;;
68353;SDS011;55274;43.060;25.618;2022-09-16T05:19:23;33.03;;;6.70;;
68353;SDS011;55274;43.060;25.618;2022-09-16T05:21:48;23.58;;;7.85;;
68353;SDS011;55274;43.060;25.618;2022-09-16T05:24:14;27.63;;;9.13;;
68353;SDS011;55274;43.060;25.618;2022-09-16T05:26:40;43.42;;;12.20;;
68353;SDS011;55274;43.060;25.618;2022-09-16T05:29:09;42.70;;;11.27;;
68353;SDS011;55274;43.060;25.618;2022-09-16T05:31:38;55.38;;;12.73;;
68353;SDS011;55274;43.060;25.618;2022-09-16T05:34:06;43.05;;;10.30;;
68353;SDS011;55274;43.060;25.618;2022-09-16T05:36:37;40.42;;;13.30;;
68353;SDS011;55274;43.060;25.618;2022-09-16T05:39:04;52.65;;;15.27;;
68353;SDS011;55274;43.060;25.618;2022-09-16T05:41:31;43.45;;;13.77;;
68353;SDS011;55274;43.060;25.618;2022-09-16T05:43:57;44.05;;;15.30;;
68353;SDS011;55274;43.060;25.618;2022-09-16T05:46:25;178.57;;;149.20;;
68353;SDS011;55274;43.060;25.618;2022-09-16T05:48:51;51.78;;;21.75;;
68353;SDS011;55274;43.060;25.618;2022-09-16T05:51:18;37.40;;;16.80;;
68353;SDS011;55274;43.060;25.618;2022-09-16T05:53:46;42.97;;;16.67;;
68353;SDS011;55274;43.060;25.618;2022-09-16T05:56:22;39.53;;;15.65;;
68353;SDS011;55274;43.060;25.618;2022-09-16T05:58:50;44.85;;;17.35;;
68353;SDS011;55274;43.060;25.618;2022-09-16T06:01:21;41.42;;;16.17;;
68353;SDS011;55274;43.060;25.618;2022-09-16T06:03:49;50.10;;;18.48;;
68353;SDS011;55274;43.060;25.618;2022-09-16T06:06:28;46.70;;;15.00;;
68353;SDS011;55274;43.060;25.618;2022-09-16T06:08:57;43.40;;;10.80;;
68353;SDS011;55274;43.060;25.618;2022-09-16T06:11:25;53.33;;;12.25;;
68353;SDS011;55274;43.060;25.618;2022-09-16T06:13:53;86.85;;;18.55;;
68353;SDS011;55274;43.060;25.618;2022-09-16T06:16:24;54.22;;;14.40;;
68353;SDS011;55274;43.060;25.618;2022-09-16T06:18:54;66.13;;;16.33;;
68353;SDS011;55274;43.060;25.618;2022-09-16T06:21:21;67.15;;;18.23;;
68353;SDS011;55274;43.060;25.618;2022-09-16T06:23:47;70.43;;;20.55;;
68353;SDS011;55274;43.060;25.618;2022-09-16T06:26:14;56.17;;;20.02;;
68353;SDS011;55274;43.060;25.618;2022-09-16T06:28:42;57.47;;;19.13;;
68353;SDS011;55274;43.060;25.618;2022-09-16T06:31:12;53.42;;;22.40;;
68353;SDS011;55274;43.060;25.618;2022-09-16T06:33:39;161.73;;;31.20;;
68353;SDS011;55274;43.060;25.618;2022-09-16T06:36:12;87.25;;;24.63;;
68353;SDS011;55274;43.060;25.618;2022-09-16T06:38:41;84.50;;;25.65;;
68353;SDS011;55274;43.060;25.618;2022-09-16T06:41:08;71.20;;;22.63;;
68353;SDS011;55274;43.060;25.618;2022-09-16T06:43:35;53.08;;;22.52;;
68353;SDS011;55274;43.060;25.618;2022-09-16T06:46:03;49.72;;;23.40;;
68353;SDS011;55274;43.060;25.618;2022-09-16T06:48:43;50.50;;;22.92;;
68353;SDS011;55274;43.060;25.618;2022-09-16T06:51:21;69.35;;;22.25;;
68353;SDS011;55274;43.060;25.618;2022-09-16T06:53:48;57.35;;;22.85;;
68353;SDS011;55274;43.060;25.618;2022-09-16T06:56:16;50.50;;;18.70;;
68353;SDS011;55274;43.060;25.618;2022-09-16T06:58:44;64.32;;;23.85;;
68353;SDS011;55274;43.060;25.618;2022-09-16T07:01:14;85.10;;;28.52;;
68353;SDS011;55274;43.060;25.618;2022-09-16T07:03:45;83.45;;;27.60;;
68353;SDS011;55274;43.060;25.618;2022-09-16T07:06:13;54.75;;;21.10;;
68353;SDS011;55274;43.060;25.618;2022-09-16T07:08:40;81.00;;;28.23;;
68353;SDS011;55274;43.060;25.618;2022-09-16T07:11:09;51.53;;;23.02;;
68353;SDS011;55274;43.060;25.618;2022-09-16T07:13:40;57.08;;;24.50;;
68353;SDS011;55274;43.060;25.618;2022-09-16T07:16:11;54.13;;;23.10;;
68353;SDS011;55274;43.060;25.618;2022-09-16T07:18:39;62.63;;;16.10;;
68353;SDS011;55274;43.060;25.618;2022-09-16T07:23:37;27.80;;;7.50;;
68353;SDS011;55274;43.060;25.618;2022-09-16T07:26:08;15.85;;;5.45;;
68353;SDS011;55274;43.060;25.618;2022-09-16T07:28:39;10.77;;;3.50;;
68353;SDS011;55274;43.060;25.618;2022-09-16T07:31:10;79.90;;;12.32;;
68353;SDS011;55274;43.060;25.618;2022-09-16T07:33:38;32.25;;;6.20;;
68353;SDS011;55274;43.060;25.618;2022-09-16T07:36:06;19.75;;;4.93;;
68353;SDS011;55274;43.060;25.618;2022-09-16T07:38:33;17.45;;;4.25;;
68353;SDS011;55274;43.060;25.618;2022-09-16T07:41:09;16.25;;;3.97;;
68353;SDS011;55274;43.060;25.618;2022-09-16T07:43:37;15.80;;;3.70;;
68353;SDS011;55274;43.060;25.618;2022-09-16T07:46:04;16.48;;;4.72;;
68353;SDS011;55274;43.060;25.618;2022-09-16T07:48:31;16.70;;;4.55;;
68353;SDS011;55274;43.060;25.618;2022-09-16T07:50:59;13.02;;;3.45;;
68353;SDS011;55274;43.060;25.618;2022-09-16T07:53:27;14.15;;;4.10;;
68353;SDS011;55274;43.060;25.618;2022-09-16T07:56:00;19.90;;;3.83;;
68353;SDS011;55274;43.060;25.618;2022-09-16T07:58:28;13.65;;;4.90;;
68353;SDS011;55274;43.060;25.618;2022-09-16T08:00:53;11.57;;;3.42;;
68353;SDS011;55274;43.060;25.618;2022-09-16T08:03:19;16.33;;;3.13;;
68353;SDS011;55274;43.060;25.618;2022-09-16T08:05:45;18.33;;;2.97;;
68353;SDS011;55274;43.060;25.618;2022-09-16T08:08:11;29.92;;;4.55;;
68353;SDS011;55274;43.060;25.618;2022-09-16T08:10:37;16.90;;;3.45;;
68353;SDS011;55274;43.060;25.618;2022-09-16T08:13:03;13.60;;;3.60;;
68353;SDS011;55274;43.060;25.618;2022-09-16T08:15:30;12.20;;;3.20;;
68353;SDS011;55274;43.060;25.618;2022-09-16T08:17:56;16.90;;;3.33;;
68353;SDS011;55274;43.060;25.618;2022-09-16T08:20:22;15.20;;;3.25;;
68353;SDS011;55274;43.060;25.618;2022-09-16T08:22:50;16.20;;;3.50;;
68353;SDS011;55274;43.060;25.618;2022-09-16T08:25:16;24.92;;;4.05;;
68353;SDS011;55274;43.060;25.618;2022-09-16T08:27:42;10.20;;;2.70;;
68353;SDS011;55274;43.060;25.618;2022-09-16T08:30:08;16.33;;;3.22;;
68353;SDS011;55274;43.060;25.618;2022-09-16T08:32:35;21.30;;;3.10;;
68353;SDS011;55274;43.060;25.618;2022-09-16T08:35:00;11.13;;;2.80;;
68353;SDS011;55274;43.060;25.618;2022-09-16T08:37:27;10.05;;;2.40;;
68353;SDS011;55274;43.060;25.618;2022-09-16T08:39:52;15.65;;;3.10;;
68353;SDS011;55274;43.060;25.618;2022-09-16T08:50:12;16.70;;;2.95;;
68353;SDS011;55274;43.060;25.618;2022-09-16T08:52:45;12.50;;;3.00;;
68353;SDS011;55274;43.060;25.618;2022-09-16T08:55:25;12.85;;;2.40;;
68353;SDS011;55274;43.060;25.618;2022-09-16T09:00:30;11.20;;;2.67;;
68353;SDS011;55274;43.060;25.618;2022-09-16T09:06:01;9.65;;;2.10;;
68353;SDS011;55274;43.060;25.618;2022-09-16T09:11:50;10.13;;;2.10;;
68353;SDS011;55274;43.060;25.618;2022-09-16T09:20:43;20.55;;;3.47;;
68353;SDS011;55274;43.060;25.618;2022-09-16T09:25:58;13.13;;;3.08;;
68353;SDS011;55274;43.060;25.618;2022-09-16T09:42:29;10.52;;;2.47;;
68353;SDS011;55274;43.060;25.618;2022-09-16T09:47:35;12.95;;;2.40;;
68353;SDS011;55274;43.060;25.618;2022-09-16T09:50:26;13.77;;;2.42;;
68353;SDS011;55274;43.060;25.618;2022-09-16T09:56:03;16.00;;;2.67;;
68353;SDS011;55274;43.060;25.618;2022-09-16T09:58:47;12.38;;;2.45;;
68353;SDS011;55274;43.060;25.618;2022-09-16T10:01:23;15.18;;;3.30;;
68353;SDS011;55274;43.060;25.618;2022-09-16T10:03:49;15.07;;;3.45;;
68353;SDS011;55274;43.060;25.618;2022-09-16T10:06:20;13.57;;;2.60;;
68353;SDS011;55274;43.060;25.618;2022-09-16T10:08:53;9.40;;;2.15;;
68353;SDS011;55274;43.060;25.618;2022-09-16T10:11:23;14.65;;;2.55;;
68353;SDS011;55274;43.060;25.618;2022-09-16T10:13:52;21.15;;;3.33;;
68353;SDS011;55274;43.060;25.618;2022-09-16T10:16:21;16.70;;;2.65;;
68353;SDS011;55274;43.060;25.618;2022-09-16T10:18:55;7.93;;;2.22;;
68353;SDS011;55274;43.060;25.618;2022-09-16T10:21:48;16.67;;;2.45;;
68353;SDS011;55274;43.060;25.618;2022-09-16T10:24:26;16.80;;;2.83;;
68353;SDS011;55274;43.060;25.618;2022-09-16T10:27:01;9.38;;;2.28;;
68353;SDS011;55274;43.060;25.618;2022-09-16T10:29:43;15.18;;;3.53;;
68353;SDS011;55274;43.060;25.618;2022-09-16T10:32:10;14.82;;;2.78;;
68353;SDS011;55274;43.060;25.618;2022-09-16T10:34:43;8.27;;;2.47;;
68353;SDS011;55274;43.060;25.618;2022-09-16T10:39:36;18.13;;;2.38;;
68353;SDS011;55274;43.060;25.618;2022-09-16T10:42:14;12.82;;;2.65;;
68353;SDS011;55274;43.060;25.618;2022-09-16T10:44:49;11.30;;;2.28;;
68353;SDS011;55274;43.060;25.618;2022-09-16T10:47:23;12.82;;;4.13;;
68353;SDS011;55274;43.060;25.618;2022-09-16T10:49:55;12.82;;;2.63;;
68353;SDS011;55274;43.060;25.618;2022-09-16T10:52:30;12.95;;;2.72;;
68353;SDS011;55274;43.060;25.618;2022-09-16T10:57:51;25.75;;;3.60;;
68353;SDS011;55274;43.060;25.618;2022-09-16T11:00:20;12.55;;;2.78;;
68353;SDS011;55274;43.060;25.618;2022-09-16T11:09:00;18.45;;;2.72;;
68353;SDS011;55274;43.060;25.618;2022-09-16T11:11:50;11.13;;;2.30;;
68353;SDS011;55274;43.060;25.618;2022-09-16T11:19:54;13.35;;;3.10;;
68353;SDS011;55274;43.060;25.618;2022-09-16T11:30:48;9.85;;;2.30;;
68353;SDS011;55274;43.060;25.618;2022-09-16T11:33:39;8.75;;;2.10;;
68353;SDS011;55274;43.060;25.618;2022-09-16T11:50:25;13.50;;;2.78;;
68353;SDS011;55274;43.060;25.618;2022-09-16T12:07:00;16.65;;;2.70;;
68353;SDS011;55274;43.060;25.618;2022-09-16T12:12:12;26.55;;;3.80;;
68353;SDS011;55274;43.060;25.618;2022-09-16T12:14:42;15.05;;;2.38;;
68353;SDS011;55274;43.060;25.618;2022-09-16T12:19:46;14.48;;;2.35;;
68353;SDS011;55274;43.060;25.618;2022-09-16T12:27:49;15.25;;;3.25;;
68353;SDS011;55274;43.060;25.618;2022-09-16T12:30:19;37.60;;;4.35;;
68353;SDS011;55274;43.060;25.618;2022-09-16T12:35:43;21.50;;;3.40;;
68353;SDS011;55274;43.060;25.618;2022-09-16T12:38:30;16.50;;;3.25;;
68353;SDS011;55274;43.060;25.618;2022-09-16T12:46:51;12.32;;;2.80;;
68353;SDS011;55274;43.060;25.618;2022-09-16T13:03:16;10.07;;;2.47;;
68353;SDS011;55274;43.060;25.618;2022-09-16T13:05:45;11.70;;;2.65;;
68353;SDS011;55274;43.060;25.618;2022-09-16T13:08:30;11.02;;;3.00;;
68353;SDS011;55274;43.060;25.618;2022-09-16T13:11:04;10.23;;;3.08;;
68353;SDS011;55274;43.060;25.618;2022-09-16T13:13:36;16.15;;;2.42;;
68353;SDS011;55274;43.060;25.618;2022-09-16T13:16:06;8.63;;;2.47;;
68353;SDS011;55274;43.060;25.618;2022-09-16T13:21:06;18.25;;;3.80;;
68353;SDS011;55274;43.060;25.618;2022-09-16T13:23:39;15.48;;;4.78;;
68353;SDS011;55274;43.060;25.618;2022-09-16T13:26:08;28.52;;;9.32;;
68353;SDS011;55274;43.060;25.618;2022-09-16T13:28:35;28.98;;;4.30;;
68353;SDS011;55274;43.060;25.618;2022-09-16T13:33:35;18.25;;;5.80;;
68353;SDS011;55274;43.060;25.618;2022-09-16T13:36:16;12.35;;;4.50;;
68353;SDS011;55274;43.060;25.618;2022-09-16T13:39:03;13.10;;;4.10;;
68353;SDS011;55274;43.060;25.618;2022-09-16T13:44:03;16.90;;;3.60;;
68353;SDS011;55274;43.060;25.618;2022-09-16T13:47:13;16.55;;;4.15;;
68353;SDS011;55274;43.060;25.618;2022-09-16T13:49:53;11.30;;;2.95;;
68353;SDS011;55274;43.060;25.618;2022-09-16T13:52:34;12.25;;;3.47;;
68353;SDS011;55274;43.060;25.618;2022-09-16T13:55:02;16.30;;;5.07;;
68353;SDS011;55274;43.060;25.618;2022-09-16T14:11:08;14.35;;;3.03;;
68353;SDS011;55274;43.060;25.618;2022-09-16T14:13:50;12.15;;;3.53;;
68353;SDS011;55274;43.060;25.618;2022-09-16T14:16:25;13.40;;;2.88;;
68353;SDS011;55274;43.060;25.618;2022-09-16T14:19:39;15.68;;;4.90;;
68353;SDS011;55274;43.060;25.618;2022-09-16T14:21:46;17.02;;;9.52;;
68353;SDS011;55274;43.060;25.618;2022-09-16T14:24:35;10.98;;;3.83;;
68353;SDS011;55274;43.060;25.618;2022-09-16T14:27:16;14.35;;;7.28;;
68353;SDS011;55274;43.060;25.618;2022-09-16T14:30:14;19.10;;;5.00;;
68353;SDS011;55274;43.060;25.618;2022-09-16T14:32:41;12.30;;;4.25;;
68353;SDS011;55274;43.060;25.618;2022-09-16T14:35:08;21.85;;;4.15;;
68353;SDS011;55274;43.060;25.618;2022-09-16T14:37:38;10.65;;;3.22;;
68353;SDS011;55274;43.060;25.618;2022-09-16T14:40:05;19.48;;;4.35;;
68353;SDS011;55274;43.060;25.618;2022-09-16T14:42:37;14.85;;;2.97;;
68353;SDS011;55274;43.060;25.618;2022-09-16T14:45:13;10.23;;;2.72;;
68353;SDS011;55274;43.060;25.618;2022-09-16T14:47:44;15.45;;;2.60;;
68353;SDS011;55274;43.060;25.618;2022-09-16T14:50:12;9.43;;;2.47;;
68353;SDS011;55274;43.060;25.618;2022-09-16T14:52:54;30.42;;;4.40;;
68353;SDS011;55274;43.060;25.618;2022-09-16T14:55:26;41.92;;;5.20;;
68353;SDS011;55274;43.060;25.618;2022-09-16T14:57:54;62.25;;;6.43;;
68353;SDS011;55274;43.060;25.618;2022-09-16T15:00:20;25.23;;;4.15;;
68353;SDS011;55274;43.060;25.618;2022-09-16T15:05:38;9.30;;;2.40;;
68353;SDS011;55274;43.060;25.618;2022-09-16T15:08:18;13.25;;;3.00;;
68353;SDS011;55274;43.060;25.618;2022-09-16T15:13:24;49.28;;;6.28;;
68353;SDS011;55274;43.060;25.618;2022-09-16T15:15:53;25.95;;;4.05;;
68353;SDS011;55274;43.060;25.618;2022-09-16T15:18:25;27.15;;;4.43;;
68353;SDS011;55274;43.060;25.618;2022-09-16T15:21:16;43.45;;;5.60;;
68353;SDS011;55274;43.060;25.618;2022-09-16T15:23:45;21.63;;;3.50;;
68353;SDS011;55274;43.060;25.618;2022-09-16T15:26:17;15.23;;;3.10;;
68353;SDS011;55274;43.060;25.618;2022-09-16T15:31:31;8.45;;;2.05;;
68353;SDS011;55274;43.060;25.618;2022-09-16T15:34:24;14.10;;;2.30;;
68353;SDS011;55274;43.060;25.618;2022-09-16T15:42:04;12.65;;;2.80;;
68353;SDS011;55274;43.060;25.618;2022-09-16T15:44:36;14.40;;;2.75;;
68353;SDS011;55274;43.060;25.618;2022-09-16T15:47:19;17.90;;;2.90;;
68353;SDS011;55274;43.060;25.618;2022-09-16T15:49:51;39.08;;;5.50;;
68353;SDS011;55274;43.060;25.618;2022-09-16T15:52:23;30.15;;;4.35;;
68353;SDS011;55274;43.060;25.618;2022-09-16T15:54:54;72.75;;;7.15;;
68353;SDS011;55274;43.060;25.618;2022-09-16T15:59:57;17.42;;;3.55;;
68353;SDS011;55274;43.060;25.618;2022-09-16T16:05:38;9.95;;;2.17;;
68353;SDS011;55274;43.060;25.618;2022-09-16T16:08:37;9.02;;;2.80;;
68353;SDS011;55274;43.060;25.618;2022-09-16T16:11:10;11.45;;;2.20;;
68353;SDS011;55274;43.060;25.618;2022-09-16T16:13:41;22.35;;;3.28;;
68353;SDS011;55274;43.060;25.618;2022-09-16T16:16:08;14.30;;;3.60;;
68353;SDS011;55274;43.060;25.618;2022-09-16T16:18:35;45.17;;;5.47;;
68353;SDS011;55274;43.060;25.618;2022-09-16T16:21:06;23.40;;;3.38;;
68353;SDS011;55274;43.060;25.618;2022-09-16T16:23:34;12.90;;;2.47;;
68353;SDS011;55274;43.060;25.618;2022-09-16T16:26:01;8.45;;;2.42;;
68353;SDS011;55274;43.060;25.618;2022-09-16T16:28:28;11.98;;;2.97;;
68353;SDS011;55274;43.060;25.618;2022-09-16T16:31:06;21.58;;;3.50;;
68353;SDS011;55274;43.060;25.618;2022-09-16T16:33:43;35.22;;;4.15;;
68353;SDS011;55274;43.060;25.618;2022-09-16T16:36:10;25.20;;;4.03;;
68353;SDS011;55274;43.060;25.618;2022-09-16T16:38:37;19.52;;;3.25;;
68353;SDS011;55274;43.060;25.618;2022-09-16T16:41:04;38.80;;;4.30;;
68353;SDS011;55274;43.060;25.618;2022-09-16T16:43:31;17.88;;;3.30;;
68353;SDS011;55274;43.060;25.618;2022-09-16T16:45:57;25.23;;;4.20;;
68353;SDS011;55274;43.060;25.618;2022-09-16T16:48:25;86.78;;;8.10;;
68353;SDS011;55274;43.060;25.618;2022-09-16T16:50:55;48.42;;;5.13;;
68353;SDS011;55274;43.060;25.618;2022-09-16T16:53:26;28.52;;;4.15;;
68353;SDS011;55274;43.060;25.618;2022-09-16T16:55:53;15.45;;;3.17;;
68353;SDS011;55274;43.060;25.618;2022-09-16T16:58:19;13.48;;;3.42;;
68353;SDS011;55274;43.060;25.618;2022-09-16T17:00:45;22.75;;;3.53;;
68353;SDS011;55274;43.060;25.618;2022-09-16T17:03:13;19.58;;;3.72;;
68353;SDS011;55274;43.060;25.618;2022-09-16T17:05:39;29.27;;;4.07;;
68353;SDS011;55274;43.060;25.618;2022-09-16T17:08:05;16.88;;;3.67;;
68353;SDS011;55274;43.060;25.618;2022-09-16T17:10:31;18.13;;;3.53;;
68353;SDS011;55274;43.060;25.618;2022-09-16T17:12:57;17.35;;;3.00;;
68353;SDS011;55274;43.060;25.618;2022-09-16T17:15:23;34.50;;;4.10;;
68353;SDS011;55274;43.060;25.618;2022-09-16T17:17:49;23.42;;;3.85;;
68353;SDS011;55274;43.060;25.618;2022-09-16T17:20:15;31.50;;;4.00;;
68353;SDS011;55274;43.060;25.618;2022-09-16T17:22:41;27.70;;;4.40;;
68353;SDS011;55274;43.060;25.618;2022-09-16T17:25:08;52.00;;;5.50;;
68353;SDS011;55274;43.060;25.618;2022-09-16T17:27:34;22.55;;;4.45;;
68353;SDS011;55274;43.060;25.618;2022-09-16T17:30:00;17.60;;;3.38;;
68353;SDS011;55274;43.060;25.618;2022-09-16T17:32:26;15.85;;;3.92;;
68353;SDS011;55274;43.060;25.618;2022-09-16T17:34:52;20.17;;;4.38;;
68353;SDS011;55274;43.060;25.618;2022-09-16T17:37:17;15.10;;;3.17;;
68353;SDS011;55274;43.060;25.618;2022-09-16T17:39:44;23.48;;;4.28;;
68353;SDS011;55274;43.060;25.618;2022-09-16T17:42:10;20.60;;;4.90;;
68353;SDS011;55274;43.060;25.618;2022-09-16T17:44:35;12.70;;;4.43;;
68353;SDS011;55274;43.060;25.618;2022-09-16T17:47:01;17.80;;;4.35;;
68353;SDS011;55274;43.060;25.618;2022-09-16T17:49:27;20.60;;;4.15;;
68353;SDS011;55274;43.060;25.618;2022-09-16T17:51:53;17.25;;;3.97;;
68353;SDS011;55274;43.060;25.618;2022-09-16T17:54:20;16.30;;;3.50;;
68353;SDS011;55274;43.060;25.618;2022-09-16T17:56:46;37.17;;;4.78;;
68353;SDS011;55274;43.060;25.618;2022-09-16T17:59:14;25.95;;;4.57;;
68353;SDS011;55274;43.060;25.618;2022-09-16T18:01:40;23.83;;;6.00;;
68353;SDS011;55274;43.060;25.618;2022-09-16T18:04:06;20.10;;;4.75;;
68353;SDS011;55274;43.060;25.618;2022-09-16T18:06:33;17.38;;;4.70;;
68353;SDS011;55274;43.060;25.618;2022-09-16T18:09:04;12.65;;;4.80;;
68353;SDS011;55274;43.060;25.618;2022-09-16T18:11:31;11.52;;;5.03;;
68353;SDS011;55274;43.060;25.618;2022-09-16T18:13:58;21.98;;;3.45;;
68353;SDS011;55274;43.060;25.618;2022-09-16T18:16:26;22.65;;;4.25;;
68353;SDS011;55274;43.060;25.618;2022-09-16T18:18:53;22.77;;;5.53;;
68353;SDS011;55274;43.060;25.618;2022-09-16T18:21:21;14.25;;;4.85;;
68353;SDS011;55274;43.060;25.618;2022-09-16T18:23:50;24.10;;;4.57;;
68353;SDS011;55274;43.060;25.618;2022-09-16T18:26:17;20.60;;;5.22;;
68353;SDS011;55274;43.060;25.618;2022-09-16T18:28:44;16.60;;;4.72;;
68353;SDS011;55274;43.060;25.618;2022-09-16T18:31:12;20.65;;;5.65;;